Time;durP1;ratioP1;P1;durP2;ratioP2;P2;SDS_P1;SDS_P2;PMS_P1;PMS_P2;Temp;Humidity;BMP_temperature;BMP_pressure;BME280_temperature;BME280_humidity;BME280_pressure;Samples;Min_cycle;Max_cycle;Signal;HPM_P1;HPM_P2
2024/01/01 00:00:11;;;;;;;32.30;23.20;;;11.30;99.90;;;;;;5015962;28;20087;-88
2024/01/01 00:02:37;;;;;;;33.83;23.05;;;11.30;99.90;;;;;;5015712;28;20030;-88
2024/01/01 00:05:02;;;;;;;33.35;23.10;;;11.30;99.90;;;;;;5015599;28;20017;-88
2024/01/01 00:07:28;;;;;;;42.83;30.85;;;11.30;99.90;;;;;;5015558;28;20379;-87
2024/01/01 00:09:54;;;;;;;51.85;34.50;;;11.30;99.90;;;;;;5033725;28;20030;-87
2024/01/01 00:12:19;;;;;;;58.20;39.78;;;11.30;99.90;;;;;;5035093;28;20033;-86
2024/01/01 00:14:45;;;;;;;79.82;49.63;;;11.20;99.90;;;;;;5034773;28;20036;-86
2024/01/01 00:17:11;;;;;;;64.55;41.03;;;11.20;99.90;;;;;;5036021;28;20080;-86
2024/01/01 00:19:36;;;;;;;44.40;31.25;;;11.30;99.90;;;;;;5035846;28;20446;-86
2024/01/01 00:22:02;;;;;;;75.90;47.83;;;11.20;99.90;;;;;;5033277;28;20033;-86
2024/01/01 00:24:29;;;;;;;67.03;45.97;;;11.20;99.90;;;;;;5034897;28;20362;-87
2024/01/01 00:26:54;;;;;;;40.28;28.58;;;11.10;99.90;;;;;;5034701;28;20033;-86
2024/01/01 00:29:20;;;;;;;37.28;25.45;;;11.10;99.90;;;;;;5035072;28;20040;-86
2024/01/01 00:31:46;;;;;;;33.05;22.17;;;11.00;99.90;;;;;;5035085;28;20037;-86
2024/01/01 00:34:11;;;;;;;47.28;34.33;;;11.00;99.90;;;;;;5034822;28;20021;-87
2024/01/01 00:36:37;;;;;;;48.58;35.13;;;10.90;99.90;;;;;;5034776;28;20029;-86
2024/01/01 00:39:03;;;;;;;33.33;24.70;;;10.80;99.90;;;;;;5034534;28;20108;-85
2024/01/01 00:41:29;;;;;;;37.55;25.92;;;10.60;99.90;;;;;;5034553;28;20047;-86
2024/01/01 00:43:54;;;;;;;37.13;26.38;;;10.60;99.90;;;;;;5034010;28;20104;-86
2024/01/01 00:46:20;;;;;;;20.52;15.85;;;10.40;99.90;;;;;;5032977;28;20465;-86
2024/01/01 00:48:46;;;;;;;19.42;14.82;;;10.40;99.90;;;;;;5034612;28;20381;-86
2024/01/01 00:51:11;;;;;;;22.90;17.20;;;10.50;99.90;;;;;;5034511;28;20103;-86
2024/01/01 00:53:37;;;;;;;17.45;13.27;;;10.50;99.90;;;;;;5034201;28;20450;-86
2024/01/01 00:56:03;;;;;;;15.68;12.10;;;10.60;99.90;;;;;;5034061;28;20035;-86
2024/01/01 00:58:29;;;;;;;15.60;11.93;;;10.60;99.90;;;;;;5032683;28;20036;-84
2024/01/01 01:00:56;;;;;;;17.80;12.38;;;10.60;99.90;;;;;;5032595;28;20057;-86
2024/01/01 01:03:22;;;;;;;17.08;11.93;;;10.60;99.90;;;;;;5033356;28;20025;-86
2024/01/01 01:05:47;;;;;;;16.13;12.80;;;10.70;99.90;;;;;;5033480;28;20030;-86
2024/01/01 01:08:13;;;;;;;17.55;12.75;;;10.80;99.90;;;;;;5031456;28;20512;-86
2024/01/01 01:10:39;;;;;;;17.85;13.98;;;10.80;99.90;;;;;;5033532;28;20451;-85
2024/01/01 01:13:05;;;;;;;16.40;12.25;;;10.80;99.90;;;;;;5033150;28;20476;-86
2024/01/01 01:15:31;;;;;;;19.77;14.07;;;10.90;99.90;;;;;;5033519;28;20041;-86
2024/01/01 01:17:57;;;;;;;20.70;16.13;;;10.90;99.90;;;;;;5033845;28;20036;-86
2024/01/01 01:20:23;;;;;;;20.80;14.65;;;10.80;99.90;;;;;;5033738;28;20104;-86
2024/01/01 01:22:49;;;;;;;22.17;15.93;;;10.80;99.90;;;;;;5033075;28;20460;-87
2024/01/01 01:25:14;;;;;;;21.45;15.20;;;10.80;99.90;;;;;;5033279;28;20045;-86
2024/01/01 01:27:43;;;;;;;19.20;13.88;;;10.80;99.90;;;;;;5033977;28;20030;-86
2024/01/01 01:30:09;;;;;;;23.15;15.77;;;10.80;99.90;;;;;;5033272;28;20025;-86
2024/01/01 01:32:35;;;;;;;20.27;14.55;;;10.90;99.90;;;;;;5033762;28;20034;-87
2024/01/01 01:35:01;;;;;;;22.77;16.52;;;10.90;99.90;;;;;;5033242;28;20022;-87
2024/01/01 01:37:26;;;;;;;24.48;17.88;;;10.90;99.90;;;;;;5031743;28;20030;-86
2024/01/01 01:39:52;;;;;;;22.63;15.45;;;10.80;99.90;;;;;;5033554;28;20021;-86
2024/01/01 01:42:18;;;;;;;21.88;15.98;;;10.90;99.90;;;;;;5033008;28;20122;-86
2024/01/01 01:44:43;;;;;;;23.92;15.70;;;10.90;99.90;;;;;;5032446;28;20021;-86
2024/01/01 01:47:10;;;;;;;23.90;17.42;;;10.90;99.90;;;;;;5033570;28;20087;-87
2024/01/01 01:49:36;;;;;;;32.08;22.73;;;10.90;99.90;;;;;;5033336;28;20018;-86
2024/01/01 01:52:03;;;;;;;24.90;17.83;;;10.90;99.90;;;;;;5033606;28;20485;-86
2024/01/01 01:54:32;;;;;;;23.95;16.30;;;10.90;99.90;;;;;;5032237;28;20033;-86
2024/01/01 01:56:58;;;;;;;22.20;15.82;;;10.80;99.90;;;;;;5031845;28;20029;-84
2024/01/01 01:59:24;;;;;;;21.25;13.82;;;10.80;99.90;;;;;;5032937;28;20033;-84
2024/01/01 02:01:50;;;;;;;23.40;15.93;;;10.80;99.90;;;;;;5032720;28;20378;-84
2024/01/01 02:04:16;;;;;;;31.42;20.77;;;10.80;99.90;;;;;;5035463;28;20022;-83
2024/01/01 02:06:42;;;;;;;26.67;17.52;;;10.80;99.90;;;;;;5037175;28;20081;-84
2024/01/01 02:09:09;;;;;;;36.42;25.48;;;10.70;99.90;;;;;;5036428;28;20442;-84
2024/01/01 02:11:34;;;;;;;19.13;13.15;;;10.60;99.90;;;;;;5036807;28;20146;-84
2024/01/01 02:14:09;;;;;;;22.92;15.93;;;10.60;99.90;;;;;;5036740;28;20067;-84
2024/01/01 02:16:35;;;;;;;19.45;14.20;;;10.70;99.90;;;;;;5036928;28;20047;-84
2024/01/01 02:19:01;;;;;;;19.05;13.65;;;10.70;99.90;;;;;;5036125;28;20029;-84
2024/01/01 02:21:27;;;;;;;25.27;16.98;;;10.70;99.90;;;;;;5037052;28;20362;-84
2024/01/01 02:23:54;;;;;;;18.45;13.25;;;10.70;99.90;;;;;;5036584;28;20412;-84
2024/01/01 02:26:20;;;;;;;22.35;14.23;;;10.70;99.90;;;;;;5036211;28;20025;-84
2024/01/01 02:28:46;;;;;;;20.63;12.57;;;10.70;99.90;;;;;;5035058;28;20048;-84
2024/01/01 02:31:11;;;;;;;18.92;13.82;;;10.70;99.90;;;;;;5036084;28;20041;-84
2024/01/01 02:33:37;;;;;;;16.95;12.45;;;10.80;99.90;;;;;;5035057;28;20118;-83
2024/01/01 02:36:03;;;;;;;19.63;13.40;;;10.80;99.90;;;;;;5036799;28;20037;-84
2024/01/01 02:38:29;;;;;;;18.77;13.23;;;10.80;99.90;;;;;;5036518;28;20052;-84
2024/01/01 02:40:54;;;;;;;18.20;12.98;;;10.70;99.90;;;;;;5035984;28;20064;-84
2024/01/01 02:43:20;;;;;;;16.63;11.98;;;10.80;99.90;;;;;;5033502;28;20254;-83
2024/01/01 02:45:46;;;;;;;21.08;13.95;;;10.80;99.90;;;;;;5035933;28;20033;-84
2024/01/01 02:48:12;;;;;;;16.00;11.65;;;10.70;99.90;;;;;;5026581;28;20084;-84
2024/01/01 02:50:37;;;;;;;15.18;11.02;;;10.70;99.90;;;;;;5036422;28;20037;-84
2024/01/01 02:53:03;;;;;;;17.38;11.55;;;10.70;99.90;;;;;;5034450;28;20029;-84
2024/01/01 02:55:29;;;;;;;15.10;10.07;;;10.70;99.90;;;;;;5036369;28;20033;-84
2024/01/01 02:57:55;;;;;;;16.67;10.52;;;10.70;99.90;;;;;;5033901;28;20516;-84
2024/01/01 03:00:21;;;;;;;16.27;12.20;;;10.60;99.90;;;;;;5035269;28;20041;-84
2024/01/01 03:02:47;;;;;;;13.93;9.52;;;10.60;99.90;;;;;;5033638;28;20021;-84
2024/01/01 03:05:12;;;;;;;15.35;9.95;;;10.60;99.90;;;;;;5036098;28;20025;-84
2024/01/01 03:07:38;;;;;;;13.43;9.55;;;10.60;99.90;;;;;;5035691;28;20065;-85
2024/01/01 03:10:04;;;;;;;18.83;13.07;;;10.60;99.90;;;;;;5035949;28;20037;-84
2024/01/01 03:12:31;;;;;;;13.73;10.35;;;10.60;99.90;;;;;;5035663;28;20373;-83
2024/01/01 03:14:56;;;;;;;14.25;9.52;;;10.60;99.90;;;;;;5034519;28;20033;-84
2024/01/01 03:17:22;;;;;;;14.82;8.98;;;10.60;99.90;;;;;;5034985;28;20033;-84
2024/01/01 03:19:48;;;;;;;14.43;10.65;;;10.60;99.90;;;;;;5035708;28;20487;-85
2024/01/01 03:22:13;;;;;;;15.82;9.77;;;10.60;99.90;;;;;;5035958;28;20408;-85
2024/01/01 03:24:39;;;;;;;12.38;9.25;;;10.60;99.90;;;;;;5035246;28;20025;-86
2024/01/01 03:27:05;;;;;;;14.90;10.05;;;10.60;99.90;;;;;;5035632;28;20148;-85
2024/01/01 03:29:31;;;;;;;25.05;17.67;;;10.60;99.90;;;;;;5034759;28;20113;-86
2024/01/01 03:31:57;;;;;;;13.10;10.40;;;10.60;99.90;;;;;;5035457;28;20433;-86
2024/01/01 03:34:23;;;;;;;15.48;10.90;;;10.50;99.90;;;;;;5035235;28;20441;-86
2024/01/01 03:36:50;;;;;;;25.70;16.02;;;10.50;99.90;;;;;;5035244;28;20466;-87
2024/01/01 03:39:16;;;;;;;17.42;11.13;;;10.50;99.90;;;;;;5035248;28;20033;-89
2024/01/01 03:41:41;;;;;;;14.18;10.15;;;10.50;99.90;;;;;;5035875;28;20026;-88
2024/01/01 03:44:10;;;;;;;17.05;11.13;;;10.50;99.90;;;;;;5035223;28;20116;-87
2024/01/01 03:46:35;;;;;;;19.92;12.40;;;10.50;99.90;;;;;;5035028;28;20032;-87
2024/01/01 03:49:01;;;;;;;17.23;11.80;;;10.50;99.90;;;;;;5033500;28;20037;-84
2024/01/01 03:51:27;;;;;;;17.23;11.13;;;10.50;99.90;;;;;;5035036;28;20104;-84
2024/01/01 03:53:52;;;;;;;24.42;15.70;;;10.50;99.90;;;;;;5033760;28;20512;-84
2024/01/01 03:56:18;;;;;;;17.58;11.23;;;10.40;99.90;;;;;;5034907;28;20021;-84
2024/01/01 03:58:44;;;;;;;15.73;11.32;;;10.40;99.90;;;;;;5034604;28;20458;-84
2024/01/01 04:01:13;;;;;;;16.98;11.43;;;10.40;99.90;;;;;;5034018;28;20022;-84
2024/01/01 04:03:39;;;;;;;17.20;10.55;;;10.40;99.90;;;;;;5033409;28;20491;-84
2024/01/01 04:06:05;;;;;;;19.05;12.32;;;10.40;99.90;;;;;;5034880;28;20041;-84
2024/01/01 04:08:31;;;;;;;18.52;13.13;;;10.40;99.90;;;;;;5032833;28;20029;-84
2024/01/01 04:10:57;;;;;;;16.20;11.98;;;10.40;99.90;;;;;;5034310;28;20056;-84
2024/01/01 04:13:22;;;;;;;16.75;11.05;;;10.40;99.90;;;;;;5033315;28;20100;-84
2024/01/01 04:15:48;;;;;;;16.70;11.48;;;10.30;99.90;;;;;;5034385;28;20033;-84
2024/01/01 04:18:14;;;;;;;19.38;13.93;;;10.40;99.90;;;;;;5034472;28;20033;-84
2024/01/01 04:20:39;;;;;;;19.88;13.80;;;10.40;99.90;;;;;;5034393;28;20126;-84
2024/01/01 04:23:05;;;;;;;19.10;12.60;;;10.40;99.90;;;;;;5033970;28;20044;-84
2024/01/01 04:25:31;;;;;;;15.77;11.90;;;10.40;99.90;;;;;;5033685;28;20022;-84
2024/01/01 04:27:56;;;;;;;18.67;11.95;;;10.30;99.90;;;;;;5034077;28;20120;-83
2024/01/01 04:30:22;;;;;;;18.38;11.23;;;10.30;99.90;;;;;;5032827;28;20060;-86
2024/01/01 04:32:48;;;;;;;17.67;11.80;;;10.40;99.90;;;;;;5032862;28;20073;-86
2024/01/01 04:35:13;;;;;;;16.73;11.45;;;10.30;99.90;;;;;;5033583;28;20025;-86
2024/01/01 04:37:39;;;;;;;17.45;11.93;;;10.30;99.90;;;;;;5034113;28;20394;-86
2024/01/01 04:40:06;;;;;;;19.30;12.52;;;10.30;99.90;;;;;;5033069;28;20104;-86
2024/01/01 04:42:31;;;;;;;15.00;10.73;;;10.30;99.90;;;;;;5033515;28;20516;-86
2024/01/01 04:44:57;;;;;;;17.83;12.23;;;10.30;99.90;;;;;;5034103;28;20034;-86
2024/01/01 04:47:23;;;;;;;17.67;11.70;;;10.30;99.90;;;;;;5033546;28;20025;-86
2024/01/01 04:49:48;;;;;;;16.23;11.32;;;10.30;99.90;;;;;;5034559;28;20021;-86
2024/01/01 04:52:14;;;;;;;17.40;11.75;;;10.30;99.90;;;;;;5034199;28;20025;-87
2024/01/01 04:54:40;;;;;;;16.35;12.05;;;10.30;99.90;;;;;;5034344;28;20489;-87
2024/01/01 04:57:05;;;;;;;17.30;11.60;;;10.30;99.90;;;;;;5033832;28;20033;-87
2024/01/01 04:59:31;;;;;;;18.60;11.77;;;10.20;99.90;;;;;;5034214;28;20722;-87
2024/01/01 05:01:57;;;;;;;16.67;11.82;;;10.20;99.90;;;;;;5034057;28;20029;-87
2024/01/01 05:04:22;;;;;;;15.93;11.05;;;10.20;99.90;;;;;;5034011;28;20025;-88
2024/01/01 05:06:48;;;;;;;15.00;10.73;;;10.10;99.90;;;;;;5032250;28;20049;-87
2024/01/01 05:09:14;;;;;;;16.77;11.35;;;10.10;99.90;;;;;;5032482;28;20167;-87
2024/01/01 05:11:40;;;;;;;16.42;11.80;;;10.10;99.90;;;;;;5034046;28;20040;-87
2024/01/01 05:14:07;;;;;;;17.70;11.63;;;10.10;99.90;;;;;;5033853;28;20025;-88
2024/01/01 05:16:34;;;;;;;15.82;10.50;;;10.10;99.90;;;;;;5033336;28;20104;-88
2024/01/01 05:19:00;;;;;;;15.10;10.70;;;10.10;99.90;;;;;;5034107;28;20116;-88
2024/01/01 05:21:26;;;;;;;16.38;10.48;;;10.10;99.90;;;;;;5033965;28;20164;-85
2024/01/01 05:23:51;;;;;;;15.52;11.18;;;10.20;99.90;;;;;;5033289;28;20087;-85
2024/01/01 05:26:17;;;;;;;14.55;10.13;;;10.20;99.90;;;;;;5033454;28;20034;-84
2024/01/01 05:28:43;;;;;;;17.73;11.52;;;10.20;99.90;;;;;;5029932;28;21976;-85
2024/01/01 05:31:08;;;;;;;15.38;10.95;;;10.10;99.90;;;;;;5031215;28;20079;-84
2024/01/01 05:33:35;;;;;;;18.55;11.15;;;10.10;99.90;;;;;;5032970;28;20569;-84
2024/01/01 05:36:01;;;;;;;16.55;10.88;;;10.10;99.90;;;;;;5030726;28;20025;-86
2024/01/01 05:38:28;;;;;;;16.58;10.98;;;10.10;99.90;;;;;;5032755;28;20025;-85
2024/01/01 05:40:54;;;;;;;16.05;10.65;;;10.10;99.90;;;;;;5032914;28;20022;-85
2024/01/01 05:43:21;;;;;;;14.77;9.75;;;10.10;99.90;;;;;;5031833;28;20037;-84
2024/01/01 05:45:47;;;;;;;14.45;9.98;;;10.10;99.90;;;;;;5032671;28;20124;-85
2024/01/01 05:48:13;;;;;;;13.52;9.68;;;10.00;99.90;;;;;;5031581;28;20079;-86
2024/01/01 05:50:39;;;;;;;14.45;10.32;;;10.00;99.90;;;;;;5033624;28;20433;-87
2024/01/01 05:53:06;;;;;;;15.13;10.40;;;10.10;99.90;;;;;;5031289;28;20029;-87
2024/01/01 05:55:33;;;;;;;15.27;10.57;;;10.00;99.90;;;;;;5033040;28;20068;-88
2024/01/01 05:57:58;;;;;;;13.98;10.05;;;10.10;99.90;;;;;;5033296;28;20104;-87
2024/01/01 06:00:25;;;;;;;14.82;9.75;;;10.00;99.90;;;;;;5032490;28;20101;-86
2024/01/01 06:02:51;;;;;;;16.70;10.98;;;10.10;99.90;;;;;;5031705;28;20064;-85
2024/01/01 06:05:17;;;;;;;14.75;10.55;;;10.10;99.90;;;;;;5034198;28;20052;-87
2024/01/01 06:07:43;;;;;;;14.93;10.13;;;10.00;99.90;;;;;;5033114;28;20049;-88
2024/01/01 06:10:09;;;;;;;13.68;9.85;;;10.00;99.90;;;;;;5024807;28;20037;-86
2024/01/01 06:12:35;;;;;;;16.73;10.68;;;10.00;99.90;;;;;;5032000;28;20033;-87
2024/01/01 06:15:00;;;;;;;16.10;11.30;;;10.00;99.90;;;;;;5034635;28;20037;-87
2024/01/01 06:17:26;;;;;;;14.65;9.82;;;10.00;99.90;;;;;;5030225;28;20462;-91
2024/01/01 06:19:52;;;;;;;16.58;10.77;;;10.00;99.90;;;;;;5034259;28;20028;-91
2024/01/01 06:22:18;;;;;;;12.82;9.85;;;9.90;99.90;;;;;;5032885;28;20428;-85
2024/01/01 06:24:43;;;;;;;15.95;10.85;;;9.90;99.90;;;;;;5026215;28;20025;-85
2024/01/01 06:27:09;;;;;;;15.90;11.02;;;9.90;99.90;;;;;;5031041;28;20053;-86
2024/01/01 06:29:35;;;;;;;14.02;9.57;;;9.90;99.90;;;;;;5033509;28;20032;-87
2024/01/01 06:32:00;;;;;;;14.02;9.60;;;9.90;99.90;;;;;;5033642;28;20083;-87
2024/01/01 06:34:26;;;;;;;12.68;9.45;;;9.90;99.90;;;;;;5034320;28;20029;-88
2024/01/01 06:36:52;;;;;;;14.45;10.18;;;9.90;99.90;;;;;;5033222;28;20041;-86
2024/01/01 06:39:17;;;;;;;14.85;10.07;;;9.90;99.90;;;;;;5031337;28;20110;-87
2024/01/01 06:41:43;;;;;;;11.73;8.45;;;9.90;99.90;;;;;;5034256;28;20116;-88
2024/01/01 06:44:09;;;;;;;14.32;10.20;;;9.90;99.90;;;;;;5019605;28;20026;-88
2024/01/01 06:46:34;;;;;;;14.73;10.15;;;9.90;99.90;;;;;;5024714;28;20033;-88
2024/01/01 06:49:00;;;;;;;15.10;9.88;;;9.90;99.90;;;;;;5037062;28;20030;-87
2024/01/01 06:51:25;;;;;;;15.95;10.05;;;9.90;99.90;;;;;;5037901;28;20473;-88
2024/01/01 06:53:51;;;;;;;15.68;10.38;;;9.90;99.90;;;;;;5037835;28;20528;-89
2024/01/01 06:56:17;;;;;;;14.45;11.02;;;9.80;99.90;;;;;;5037408;28;20553;-85
2024/01/01 06:58:42;;;;;;;15.05;10.82;;;9.90;99.90;;;;;;5035214;28;20042;-86
2024/01/01 07:01:08;;;;;;;14.20;9.52;;;9.90;99.90;;;;;;5036524;28;20056;-87
2024/01/01 07:03:34;;;;;;;14.32;10.75;;;9.90;99.90;;;;;;5034655;28;20482;-87
2024/01/01 07:05:59;;;;;;;14.57;10.13;;;9.90;99.90;;;;;;5036886;28;20064;-87
2024/01/01 07:08:25;;;;;;;15.13;9.88;;;9.90;99.90;;;;;;5037251;28;20365;-87
2024/01/01 07:10:51;;;;;;;12.95;10.15;;;9.90;99.90;;;;;;5036259;28;20041;-87
2024/01/01 07:13:17;;;;;;;15.27;10.00;;;9.90;99.90;;;;;;5037208;28;20025;-85
2024/01/01 07:15:42;;;;;;;14.13;10.02;;;9.90;99.90;;;;;;5034249;28;20034;-87
2024/01/01 07:18:08;;;;;;;14.50;10.45;;;9.90;99.90;;;;;;5037711;28;20108;-85
2024/01/01 07:20:34;;;;;;;14.40;10.70;;;9.90;99.90;;;;;;5036659;28;20033;-86
2024/01/01 07:23:00;;;;;;;15.05;10.25;;;9.90;99.90;;;;;;5035933;28;20048;-84
2024/01/01 07:25:26;;;;;;;16.00;11.07;;;9.80;99.90;;;;;;5036221;28;20339;-85
2024/01/01 07:27:53;;;;;;;15.30;11.40;;;9.90;99.90;;;;;;5034908;28;20036;-85
2024/01/01 07:30:19;;;;;;;14.50;9.95;;;9.90;99.90;;;;;;5034306;28;20090;-85
2024/01/01 07:32:45;;;;;;;14.50;10.68;;;9.90;99.90;;;;;;5034672;28;20033;-85
2024/01/01 07:35:11;;;;;;;15.40;10.93;;;9.80;99.90;;;;;;5033610;28;20331;-86
2024/01/01 07:37:37;;;;;;;15.02;10.80;;;9.90;99.90;;;;;;5029607;28;20033;-85
2024/01/01 07:40:04;;;;;;;14.77;10.65;;;9.90;99.90;;;;;;5035503;28;20056;-86
2024/01/01 07:42:30;;;;;;;14.90;10.48;;;9.90;99.90;;;;;;5035596;28;20111;-86
2024/01/01 07:44:55;;;;;;;13.15;9.57;;;9.90;99.90;;;;;;5035229;28;20057;-85
2024/01/01 07:47:21;;;;;;;13.82;9.15;;;9.90;99.90;;;;;;5035328;28;20034;-87
2024/01/01 07:49:47;;;;;;;14.02;9.50;;;9.90;99.90;;;;;;5036795;28;20032;-86
2024/01/01 07:52:12;;;;;;;15.15;11.07;;;9.90;99.90;;;;;;5035565;28;20374;-87
2024/01/01 07:54:39;;;;;;;14.65;11.32;;;9.90;99.90;;;;;;5034329;28;20108;-85
2024/01/01 07:57:06;;;;;;;12.55;9.95;;;9.90;99.90;;;;;;5034366;28;20112;-86
2024/01/01 07:59:32;;;;;;;14.25;11.48;;;9.90;99.90;;;;;;5034250;28;20039;-87
2024/01/01 08:01:58;;;;;;;15.70;11.55;;;9.90;99.90;;;;;;5021902;28;20029;-84
2024/01/01 08:04:26;;;;;;;14.38;10.80;;;9.90;99.90;;;;;;5033551;28;20043;-86
2024/01/01 08:06:52;;;;;;;15.25;10.05;;;10.00;99.90;;;;;;5049462;28;20084;-86
2024/01/01 08:09:17;;;;;;;13.65;10.05;;;9.90;99.90;;;;;;5041169;28;20045;-86
2024/01/01 08:11:43;;;;;;;15.43;11.30;;;9.90;99.90;;;;;;5034293;28;20079;-84
2024/01/01 08:14:09;;;;;;;15.23;10.82;;;9.90;99.90;;;;;;5024810;28;20116;-83
2024/01/01 08:16:35;;;;;;;13.57;8.30;;;10.00;99.90;;;;;;5028904;28;20120;-87
2024/01/01 08:19:01;;;;;;;12.63;9.52;;;10.00;99.90;;;;;;5034930;28;20452;-88
2024/01/01 08:21:26;;;;;;;13.13;9.57;;;10.20;99.90;;;;;;5037658;28;20136;-87
2024/01/01 08:23:53;;;;;;;15.00;9.82;;;10.30;99.90;;;;;;5035000;28;20033;-86
2024/01/01 08:26:18;;;;;;;15.95;11.35;;;10.30;99.90;;;;;;5033966;28;20135;-86
2024/01/01 08:28:51;;;;;;;12.85;9.68;;;10.20;99.90;;;;;;5034851;28;20103;-86
2024/01/01 08:31:19;;;;;;;14.57;10.35;;;10.20;99.90;;;;;;5033906;28;20071;-86
2024/01/01 08:33:45;;;;;;;14.50;10.23;;;10.10;99.90;;;;;;5033869;28;20029;-87
2024/01/01 08:36:11;;;;;;;13.25;10.15;;;10.10;99.90;;;;;;5034693;28;20164;-87
2024/01/01 08:38:37;;;;;;;15.43;11.05;;;10.00;99.90;;;;;;5034471;28;20049;-92
2024/01/01 08:41:03;;;;;;;15.63;10.55;;;10.10;99.90;;;;;;5035810;28;20032;-94
2024/01/01 08:43:29;;;;;;;14.32;10.05;;;10.10;99.90;;;;;;5036971;28;20032;-92
2024/01/01 08:45:54;;;;;;;22.08;14.65;;;10.10;99.90;;;;;;5034847;28;20473;-91
2024/01/01 08:48:21;;;;;;;13.55;9.93;;;10.00;99.90;;;;;;5035814;28;20024;-88
2024/01/01 08:50:47;;;;;;;21.92;13.57;;;9.90;99.90;;;;;;5036539;28;20022;-88
2024/01/01 08:53:12;;;;;;;11.18;7.65;;;9.80;99.90;;;;;;5035964;28;20080;-87
2024/01/01 08:55:38;;;;;;;12.63;8.07;;;9.70;99.90;;;;;;5034379;28;20033;-85
2024/01/01 08:58:05;;;;;;;15.63;9.43;;;9.70;99.90;;;;;;5034134;28;20064;-86
2024/01/01 09:00:30;;;;;;;21.08;10.75;;;9.60;99.90;;;;;;5033346;28;20381;-86
2024/01/01 09:02:56;;;;;;;30.13;9.00;;;9.60;99.90;;;;;;5029502;28;20033;-84
2024/01/01 09:05:22;;;;;;;26.20;10.50;;;9.50;99.90;;;;;;5026559;28;20061;-83
2024/01/01 09:07:47;;;;;;;34.22;12.63;;;9.50;99.90;;;;;;5033371;28;20061;-84
2024/01/01 09:10:15;;;;;;;16.95;10.20;;;9.40;99.90;;;;;;5020498;28;20561;-84
2024/01/01 09:12:41;;;;;;;6.63;5.38;;;9.40;99.90;;;;;;5034328;28;20067;-84
2024/01/01 09:15:07;;;;;;;10.88;7.55;;;9.40;99.90;;;;;;5034470;28;20080;-84
2024/01/01 09:17:32;;;;;;;28.05;11.02;;;9.50;99.90;;;;;;5033467;28;20173;-84
2024/01/01 09:19:58;;;;;;;26.80;14.48;;;9.50;99.90;;;;;;5034319;28;20109;-84
2024/01/01 09:22:24;;;;;;;34.95;15.38;;;9.50;99.90;;;;;;5034067;28;20036;-83
2024/01/01 09:24:49;;;;;;;24.02;10.45;;;9.50;99.90;;;;;;5026904;28;20347;-83
2024/01/01 09:27:16;;;;;;;9.90;7.78;;;9.50;99.90;;;;;;5029656;28;20045;-83
2024/01/01 09:29:42;;;;;;;8.80;6.32;;;9.40;99.90;;;;;;5027642;28;20018;-83
2024/01/01 09:32:07;;;;;;;12.90;9.38;;;9.50;99.90;;;;;;5031108;28;20038;-83
2024/01/01 09:34:33;;;;;;;15.98;9.77;;;9.60;99.90;;;;;;5032859;28;20051;-83
2024/01/01 09:36:59;;;;;;;7.93;6.55;;;9.60;99.90;;;;;;5025036;28;20041;-83
2024/01/01 09:39:25;;;;;;;10.77;7.53;;;9.70;99.90;;;;;;5032294;28;20029;-84
2024/01/01 09:41:52;;;;;;;9.80;7.38;;;9.70;99.90;;;;;;5032936;28;20484;-83
2024/01/01 09:44:17;;;;;;;9.57;7.07;;;9.80;99.90;;;;;;5033067;28;20021;-83
2024/01/01 09:46:44;;;;;;;16.08;10.93;;;9.90;99.90;;;;;;5021026;28;20036;-84
2024/01/01 09:49:09;;;;;;;10.05;7.38;;;10.00;99.90;;;;;;5032232;28;20017;-82
2024/01/01 09:51:39;;;;;;;9.00;6.20;;;10.00;99.90;;;;;;5022573;28;20487;-82
2024/01/01 09:54:06;;;;;;;9.82;7.00;;;10.00;99.90;;;;;;5026555;28;20036;-84
2024/01/01 09:56:32;;;;;;;9.27;6.93;;;10.10;99.90;;;;;;5028787;28;20022;-84
2024/01/01 09:58:58;;;;;;;23.17;13.82;;;10.20;99.90;;;;;;5032554;28;20079;-82
2024/01/01 10:01:24;;;;;;;9.85;7.60;;;10.20;99.90;;;;;;5031244;28;20384;-85
2024/01/01 10:04:03;;;;;;;16.17;11.63;;;10.10;99.90;;;;;;5031760;28;20026;-84
2024/01/01 10:06:34;;;;;;;10.87;6.70;;;10.10;99.90;;;;;;5033432;28;20056;-86
2024/01/01 10:09:10;;;;;;;11.85;6.68;;;10.00;99.90;;;;;;5033661;28;20268;-86
2024/01/01 10:11:42;;;;;;;7.85;5.47;;;10.00;99.90;;;;;;5033661;28;20527;-86
2024/01/01 10:14:08;;;;;;;7.78;5.93;;;10.00;99.90;;;;;;5033698;28;20155;-86
2024/01/01 10:16:34;;;;;;;9.90;7.00;;;10.10;99.90;;;;;;5032408;28;20538;-86
2024/01/01 10:19:01;;;;;;;9.20;6.20;;;10.10;99.90;;;;;;5032671;28;20038;-87
2024/01/01 10:21:30;;;;;;;13.27;9.48;;;10.20;99.90;;;;;;5032768;28;20021;-86
2024/01/01 10:23:57;;;;;;;7.47;5.30;;;10.20;99.90;;;;;;5037020;28;20014;-84
2024/01/01 10:26:23;;;;;;;8.20;6.00;;;10.20;99.90;;;;;;5058652;28;20026;-87
2024/01/01 10:28:49;;;;;;;7.60;6.10;;;10.20;99.90;;;;;;5037707;28;20112;-87
2024/01/01 10:31:18;;;;;;;7.70;6.03;;;10.30;99.90;;;;;;5037812;28;20053;-86
2024/01/01 10:33:47;;;;;;;8.93;6.43;;;10.40;99.90;;;;;;5036585;28;20048;-87
2024/01/01 10:36:16;;;;;;;8.45;6.25;;;10.40;99.90;;;;;;5038566;28;20047;-87
2024/01/01 10:38:44;;;;;;;7.88;5.93;;;10.40;99.90;;;;;;5036338;28;20551;-87
2024/01/01 10:41:12;;;;;;;9.30;6.25;;;10.50;99.90;;;;;;5037901;28;20029;-85
2024/01/01 10:43:40;;;;;;;8.88;6.80;;;10.60;99.90;;;;;;5031564;28;20059;-85
2024/01/01 10:46:06;;;;;;;9.25;6.20;;;10.60;99.90;;;;;;5036688;28;20462;-86
2024/01/01 10:48:36;;;;;;;9.13;6.00;;;10.70;99.90;;;;;;5027655;28;20104;-86
2024/01/01 10:51:07;;;;;;;8.27;5.80;;;10.70;99.90;;;;;;5034205;28;20473;-86
2024/01/01 10:54:02;;;;;;;8.48;6.05;;;10.80;99.90;;;;;;5051334;28;20034;-87
2024/01/01 10:56:52;;;;;;;9.35;6.53;;;10.90;99.90;;;;;;5038668;28;20021;-93
2024/01/01 10:59:23;;;;;;;7.75;6.55;;;11.00;99.90;;;;;;5038706;28;20501;-95
2024/01/01 11:01:52;;;;;;;9.40;6.53;;;11.00;99.90;;;;;;5038108;28;20034;-94
2024/01/01 11:04:22;;;;;;;8.57;6.80;;;11.10;99.90;;;;;;5036132;28;20021;-92
2024/01/01 11:06:47;;;;;;;9.13;6.55;;;11.10;99.90;;;;;;5037698;28;20128;-91
2024/01/01 11:09:19;;;;;;;9.55;6.45;;;11.20;99.90;;;;;;5035080;28;20489;-91
2024/01/01 11:11:50;;;;;;;10.82;6.68;;;11.10;99.90;;;;;;5037639;28;20109;-92
2024/01/01 11:14:31;;;;;;;10.25;7.00;;;11.10;99.90;;;;;;5035905;28;20033;-93
2024/01/01 11:17:02;;;;;;;9.52;7.05;;;11.10;99.90;;;;;;5036404;28;20478;-91
2024/01/01 11:19:43;;;;;;;10.52;7.15;;;11.10;99.90;;;;;;5039469;28;20079;-91
2024/01/01 11:22:23;;;;;;;11.38;7.40;;;11.00;99.90;;;;;;5038358;28;20029;-91
2024/01/01 11:24:50;;;;;;;12.88;7.45;;;11.00;99.90;;;;;;5036668;28;20117;-92
2024/01/01 11:27:42;;;;;;;11.63;7.75;;;11.00;99.90;;;;;;5037483;28;20026;-92
2024/01/01 11:30:10;;;;;;;12.45;8.40;;;11.00;99.90;;;;;;5037830;28;20104;-93
2024/01/01 11:32:37;;;;;;;13.02;8.07;;;11.00;99.90;;;;;;5040212;28;20075;-91
2024/01/01 11:35:04;;;;;;;12.30;8.43;;;11.00;99.90;;;;;;5036377;28;20026;-93
2024/01/01 11:37:30;;;;;;;15.63;8.95;;;11.00;99.90;;;;;;5035070;28;20477;-93
2024/01/01 11:40:00;;;;;;;12.48;9.05;;;11.00;99.90;;;;;;5024552;28;20033;-94
2024/01/01 11:42:26;;;;;;;11.73;7.97;;;11.00;99.90;;;;;;5031438;28;20053;-92
2024/01/01 11:45:10;;;;;;;12.43;8.27;;;11.00;99.90;;;;;;5036953;28;20332;-91
2024/01/01 11:47:37;;;;;;;11.93;8.45;;;11.00;99.90;;;;;;5035684;28;20033;-91
2024/01/01 11:50:04;;;;;;;13.45;9.07;;;11.00;99.90;;;;;;5051156;28;20031;-93
2024/01/01 11:52:30;;;;;;;11.75;7.82;;;11.00;99.90;;;;;;5045262;28;20076;-93
2024/01/01 11:54:57;;;;;;;11.27;8.20;;;11.10;99.90;;;;;;5049026;28;20052;-92
2024/01/01 11:57:23;;;;;;;10.88;7.38;;;11.10;99.90;;;;;;5037400;28;20478;-93
2024/01/01 11:59:49;;;;;;;11.15;7.95;;;11.10;99.90;;;;;;5037722;28;20060;-93
2024/01/01 12:02:17;;;;;;;11.90;7.80;;;11.10;99.90;;;;;;5037171;28;20584;-93
2024/01/01 12:04:49;;;;;;;11.82;8.45;;;11.10;99.90;;;;;;5036473;28;20025;-93
2024/01/01 12:07:33;;;;;;;11.57;7.32;;;11.20;99.90;;;;;;5038021;23;20493;-93
2024/01/01 12:10:08;;;;;;;13.13;9.00;;;11.20;99.90;;;;;;5036512;28;20032;-92
2024/01/01 12:12:38;;;;;;;10.77;7.38;;;11.10;99.90;;;;;;5035620;28;20099;-92
2024/01/01 12:15:19;;;;;;;10.90;7.70;;;11.10;99.90;;;;;;5035477;28;20018;-88
2024/01/01 12:17:49;;;;;;;12.27;7.85;;;11.10;99.90;;;;;;5034542;28;20021;-89
2024/01/01 12:20:22;;;;;;;10.73;7.75;;;11.10;99.90;;;;;;5034238;28;20029;-90
2024/01/01 12:22:48;;;;;;;9.60;6.88;;;11.10;99.90;;;;;;5031651;28;20450;-89
2024/01/01 12:25:18;;;;;;;9.93;7.40;;;11.10;99.90;;;;;;5033941;28;20047;-87
2024/01/01 12:28:00;;;;;;;10.23;7.18;;;11.10;99.90;;;;;;5035273;28;20025;-90
2024/01/01 12:30:27;;;;;;;8.23;6.50;;;11.10;99.90;;;;;;5037930;28;20463;-88